Saranac Lake, NY

9:12 PM EST on November 24, 2014 (GMT -0500)
Burlington International | Change Station
CLOSE
Current Station
Airport
Location: Burlington,
Elevation: 341 ft
Nearby Weather Stations

Elev 341 ft 44.47 °N, 73.15 °W | Updated 18 minutes ago

Rain
Rain
63 °F
Feels Like 63 °F
N
14
Wind Variable Wind from SSW
Gusts 20 mph

Today
High -- | Low -- °F
--% Chance of Precip.
Yesterday
High -- | Low -- °F
Precip. -- in
7:03 AM 4:22 PM
Waxing Crescent, 8% visible
Pressure 29.43 in
Visibility 10.0 miles
Clouds Few 4900 ft
Mostly Cloudy 7000 ft
Overcast 10000 ft
Dew Point 54 °F
Humidity 72%
Rainfall 0.36 in
Snow Depth Not available.
UV 0 out of 12
Pollen .10 out of 12
Air Quality Not available.
Flu Activity Not available.
METAR KBTV 250154Z 20012G17KT 10SM FEW049 BKN070 OVC100 17/12 A2943 RMK AO2 SLP966 T01720122

More Conditions Fewer Conditions

Pressure 29.43 in
Visibility 10.0 miles
Clouds Few 4900 ft
Mostly Cloudy 7000 ft
Overcast 10000 ft
Dew Point 54 °F
Humidity 72%
Rainfall 0.36 in
Snow Depth Not available.
UV 0 out of 12
Pollen .10 out of 12
Air Quality Not available.
Flu Activity Not available.
METAR KBTV 250154Z 20012G17KT 10SM FEW049 BKN070 OVC100 17/12 A2943 RMK AO2 SLP966 T01720122

More Conditions Fewer Conditions

10-Day Weather Forecast

Almanac

Astronomy

Nov. 24, 2014 Rise Set
Actual Time
Civil Twilight
Nautical Twilight
Astronomical Twilight
Moon
Length of Visible Light
Length of Day
Tomorrow will be .
, % of the Moon is Illuminated

Today's Extremes

State Highs State Lows

Community

WunderPhotos

Upload Photos

1,773,460 photos uploaded!

WunderBlogs® & News

Nearby

Air Quality

  Air Quality AQ Index Pollutant
Not available.

Snow Depth

Station Depth Elevation

Earthquake Activity

City Distance Mag. Time & Date
Minimum magnitude displayed is 2.5.

Coastal Water Temperatures

Place Temperature

Nearby Weather Stations